Time;durP1;ratioP1;P1;durP2;ratioP2;P2;SDS_P1;SDS_P2;PMS_P1;PMS_P2;Temp;Humidity;BMP_temperature;BMP_pressure;BME280_temperature;BME280_humidity;BME280_pressure;Samples;Min_cycle;Max_cycle;Signal;HPM_P1;HPM_P2
2022/01/16 00:04:34;;;;;;;;;;;;;;;;;;5051365;28;19971;-76
2022/01/16 00:07:03;;;;;;;;;;;;;;;;;;5049217;28;20239;-75
2022/01/16 00:09:29;;;;;;;;;;;;;;;;;;5048294;28;19924;-75
2022/01/16 00:11:58;;;;;;;;;;;;;;;;;;5051313;28;19913;-74
2022/01/16 00:14:26;;;;;;;;;;;;;;;;;;5046394;28;19990;-74
2022/01/16 00:16:54;;;;;;;;;;;;;;;;;;5049917;28;20272;-73
2022/01/16 00:19:31;;;;;;;;;;;;;;;;;;5047662;28;20345;-74
2022/01/16 00:22:05;;;;;;;;;;;;;;;;;;5050354;28;20380;-74
2022/01/16 00:24:30;;;;;;;;;;;;;;;;;;5051367;28;19924;-75
2022/01/16 00:27:07;;;;;;;;;;;;;;;;;;5050257;28;20317;-74
2022/01/16 00:29:33;;;;;;;;;;;;;;;;;;5048807;28;20410;-73
2022/01/16 00:31:58;;;;;;;;;;;;;;;;;;5050211;28;19986;-76
2022/01/16 00:34:26;;;;;;;;;;;;;;;;;;5052292;28;20004;-76
2022/01/16 00:36:51;;;;;;;;;;;;;;;;;;5049569;28;20402;-74
2022/01/16 00:39:16;;;;;;;;;;;;;;;;;;5048226;28;20004;-75
2022/01/16 00:41:42;;;;;;;;;;;;;;;;;;5047612;28;19917;-74
2022/01/16 00:44:07;;;;;;;;;;;;;;;;;;5049215;28;19917;-74
2022/01/16 00:46:33;;;;;;;;;;;;;;;;;;5048088;28;19921;-74
2022/01/16 00:48:58;;;;;;;;;;;;;;;;;;5044807;28;19921;-74
2022/01/16 00:51:23;;;;;;;;;;;;;;;;;;5047872;28;19947;-76
2022/01/16 00:53:49;;;;;;;;;;;;;;;;;;5046488;28;19921;-74
2022/01/16 00:56:14;;;;;;;;;;;;;;;;;;5052671;28;19940;-75
2022/01/16 00:58:41;;;;;;;;;;;;;;;;;;5048057;28;19928;-74
2022/01/16 01:01:09;;;;;;;;;;;;;;;;;;5048440;28;19928;-75
2022/01/16 01:03:34;;;;;;;;;;;;;;;;;;5046357;28;20365;-74
2022/01/16 01:06:00;;;;;;;;;;;;;;;;;;5048824;28;19916;-74
2022/01/16 01:08:28;;;;;;;;;;;;;;;;;;5047108;28;19921;-74
2022/01/16 01:10:54;;;;;;;;;;;;;;;;;;5049620;28;19913;-74
2022/01/16 01:13:24;;;;;;;;;;;;;;;;;;5047166;28;19928;-73
2022/01/16 01:15:57;;;;;;;;;;;;;;;;;;5049254;28;20503;-74
2022/01/16 01:18:23;;;;;;;;;;;;;;;;;;5049094;28;19927;-76
2022/01/16 01:20:50;;;;;;;;;;;;;;;;;;5059918;28;19925;-75
2022/01/16 01:23:15;;;;;;;;;;;;;;;;;;5049551;28;19978;-76
2022/01/16 01:25:42;;;;;;;;;;;;;;;;;;5044633;28;19921;-74
2022/01/16 01:28:08;;;;;;;;;;;;;;;;;;5045618;28;19980;-75
2022/01/16 01:30:35;;;;;;;;;;;;;;;;;;5044495;28;19928;-76
2022/01/16 01:33:03;;;;;;;;;;;;;;;;;;5041829;28;19925;-76
2022/01/16 01:35:28;;;;;;;;;;;;;;;;;;5043689;28;19960;-75
2022/01/16 01:37:56;;;;;;;;;;;;;;;;;;5042730;28;19960;-75
2022/01/16 01:40:25;;;;;;;;;;;;;;;;;;5045434;28;19917;-75
2022/01/16 01:51:12;;;;;;;;;;;;;;;;;;5049719;28;19999;-75
2022/01/16 01:53:38;;;;;;;;;;;;;;;;;;5042122;28;19916;-75
2022/01/16 01:56:06;;;;;;;;;;;;;;;;;;5040722;28;19924;-74
2022/01/16 01:58:32;;;;;;;;;;;;;;;;;;5044713;28;20823;-74
2022/01/16 02:01:03;;;;;;;;;;;;;;;;;;5028185;28;19917;-75
2022/01/16 02:06:18;;;;;;;;;;;;;;;;;;5044289;28;20284;-75
2022/01/16 02:08:48;;;;;;;;;;;;;;;;;;5044468;28;20336;-75
2022/01/16 02:11:16;;;;;;;;;;;;;;;;;;5037693;28;19917;-75
2022/01/16 02:13:57;;;;;;;;;;;;;;;;;;5052820;28;20350;-74
2022/01/16 02:33:24;;;;;;;;;;;;;;;;;;5018631;28;20369;-75
2022/01/16 02:35:51;;;;;;;;;;;;;;;;;;5057918;28;19923;-74
2022/01/16 02:38:17;;;;;;;;;;;;;;;;;;5040493;28;19912;-75
2022/01/16 02:40:47;;;;;;;;;;;;;;;;;;5057382;28;19923;-74
2022/01/16 02:43:15;;;;;;;;;;;;;;;;;;5056757;28;20380;-74
2022/01/16 02:45:45;;;;;;;;;;;;;;;;;;5057077;28;19943;-74
2022/01/16 02:48:11;;;;;;;;;;;;;;;;;;5057562;28;20008;-74
2022/01/16 02:50:36;;;;;;;;;;;;;;;;;;5057217;28;20554;-74
2022/01/16 02:53:08;;;;;;;;;;;;;;;;;;5057452;28;20306;-76
2022/01/16 02:55:33;;;;;;;;;;;;;;;;;;5057563;28;19948;-74
2022/01/16 02:57:58;;;;;;;;;;;;;;;;;;5056231;28;19952;-74
2022/01/16 03:00:24;;;;;;;;;;;;;;;;;;5059636;28;19966;-74
2022/01/16 03:02:49;;;;;;;;;;;;;;;;;;5048594;28;19927;-75
2022/01/16 03:05:15;;;;;;;;;;;;;;;;;;5055612;28;19924;-75
2022/01/16 03:07:40;;;;;;;;;;;;;;;;;;5056934;28;20254;-74
2022/01/16 03:12:50;;;;;;;;;;;;;;;;;;5056494;28;19916;-74
2022/01/16 03:15:15;;;;;;;;;;;;;;;;;;5056878;28;19913;-74
2022/01/16 03:23:08;;;;;;;;;;;;;;;;;;5060669;28;19979;-75
2022/01/16 03:25:34;;;;;;;;;;;;;;;;;;5066670;28;20341;-75
2022/01/16 03:27:59;;;;;;;;;;;;;;;;;;5056298;28;19963;-75
2022/01/16 03:30:24;;;;;;;;;;;;;;;;;;5057051;28;19920;-74
2022/01/16 03:32:49;;;;;;;;;;;;;;;;;;5056270;28;19925;-75
2022/01/16 03:35:15;;;;;;;;;;;;;;;;;;5059473;28;19913;-74
2022/01/16 03:37:40;;;;;;;;;;;;;;;;;;5067682;28;20000;-74
2022/01/16 03:40:10;;;;;;;;;;;;;;;;;;5056585;28;19913;-74
2022/01/16 03:42:36;;;;;;;;;;;;;;;;;;5056448;28;20015;-74
2022/01/16 03:45:02;;;;;;;;;;;;;;;;;;5056357;28;19960;-74
2022/01/16 03:47:27;;;;;;;;;;;;;;;;;;5056047;28;20323;-74
2022/01/16 03:49:52;;;;;;;;;;;;;;;;;;5055580;28;20467;-74
2022/01/16 03:52:17;;;;;;;;;;;;;;;;;;5056586;28;19929;-75
2022/01/16 03:54:43;;;;;;;;;;;;;;;;;;5055398;28;19967;-75
2022/01/16 03:57:10;;;;;;;;;;;;;;;;;;5056604;28;19962;-75
2022/01/16 03:59:36;;;;;;;;;;;;;;;;;;5055188;28;19916;-75
2022/01/16 04:02:02;;;;;;;;;;;;;;;;;;5055743;28;19917;-76
2022/01/16 04:04:27;;;;;;;;;;;;;;;;;;5038705;28;19917;-75
2022/01/16 04:06:52;;;;;;;;;;;;;;;;;;5055124;28;20028;-75
2022/01/16 04:09:17;;;;;;;;;;;;;;;;;;5056257;28;20008;-75
2022/01/16 04:11:52;;;;;;;;;;;;;;;;;;5056266;28;20315;-75
2022/01/16 04:14:23;;;;;;;;;;;;;;;;;;5055265;28;19948;-75
2022/01/16 04:16:49;;;;;;;;;;;;;;;;;;5055772;28;19932;-75
2022/01/16 04:19:14;;;;;;;;;;;;;;;;;;5055629;28;19917;-75
2022/01/16 04:21:40;;;;;;;;;;;;;;;;;;5055621;28;20013;-75
2022/01/16 04:24:07;;;;;;;;;;;;;;;;;;5055873;28;20375;-75
2022/01/16 04:26:32;;;;;;;;;;;;;;;;;;5055659;28;19928;-75
2022/01/16 04:28:58;;;;;;;;;;;;;;;;;;5055911;28;19924;-75
2022/01/16 04:31:33;;;;;;;;;;;;;;;;;;5055769;28;19964;-72
2022/01/16 04:33:58;;;;;;;;;;;;;;;;;;5052243;28;19921;-75
2022/01/16 04:36:23;;;;;;;;;;;;;;;;;;5053792;28;20404;-73
2022/01/16 04:38:51;;;;;;;;;;;;;;;;;;5055274;28;19955;-76
2022/01/16 04:44:03;;;;;;;;;;;;;;;;;;5054568;28;20008;-75
2022/01/16 04:46:28;;;;;;;;;;;;;;;;;;5054456;28;20139;-75
2022/01/16 04:48:54;;;;;;;;;;;;;;;;;;5054450;28;20381;-75
2022/01/16 04:51:20;;;;;;;;;;;;;;;;;;5036582;28;19928;-73
2022/01/16 04:53:45;;;;;;;;;;;;;;;;;;5055007;28;19940;-73
2022/01/16 04:56:11;;;;;;;;;;;;;;;;;;5054359;28;19955;-74
2022/01/16 04:58:39;;;;;;;;;;;;;;;;;;5051193;28;19975;-74
2022/01/16 05:01:04;;;;;;;;;;;;;;;;;;5053965;28;19983;-74
2022/01/16 05:03:30;;;;;;;;;;;;;;;;;;5050610;28;19922;-73
2022/01/16 05:05:55;;;;;;;;;;;;;;;;;;5053925;28;19924;-73
2022/01/16 05:08:20;;;;;;;;;;;;;;;;;;5054458;28;20397;-74
2022/01/16 05:10:46;;;;;;;;;;;;;;;;;;5055394;28;19917;-73
2022/01/16 05:18:36;;;;;;;;;;;;;;;;;;5053566;28;20270;-73
2022/01/16 05:21:01;;;;;;;;;;;;;;;;;;5054928;28;19917;-73
2022/01/16 05:23:27;;;;;;;;;;;;;;;;;;5054308;28;20341;-73
2022/01/16 05:25:52;;;;;;;;;;;;;;;;;;5054801;28;19916;-73
2022/01/16 05:28:19;;;;;;;;;;;;;;;;;;5055259;28;19912;-77
2022/01/16 05:30:45;;;;;;;;;;;;;;;;;;5046152;28;19924;-77
2022/01/16 05:33:12;;;;;;;;;;;;;;;;;;5042600;28;20365;-77
2022/01/16 05:35:37;;;;;;;;;;;;;;;;;;5034967;28;19928;-76
2022/01/16 05:38:02;;;;;;;;;;;;;;;;;;5050085;28;19939;-76
2022/01/16 05:40:28;;;;;;;;;;;;;;;;;;5054471;28;20294;-75
2022/01/16 05:42:53;;;;;;;;;;;;;;;;;;5054496;28;20223;-77
2022/01/16 05:45:18;;;;;;;;;;;;;;;;;;5054777;28;19917;-77
2022/01/16 05:47:43;;;;;;;;;;;;;;;;;;5042509;28;19924;-77
2022/01/16 05:50:09;;;;;;;;;;;;;;;;;;5054518;28;20000;-76
2022/01/16 05:52:34;;;;;;;;;;;;;;;;;;5053286;28;20009;-76
2022/01/16 05:54:59;;;;;;;;;;;;;;;;;;5054397;28;19917;-77
2022/01/16 05:57:24;;;;;;;;;;;;;;;;;;5054046;28;19974;-76
2022/01/16 05:59:50;;;;;;;;;;;;;;;;;;5054174;28;20334;-78
2022/01/16 06:02:17;;;;;;;;;;;;;;;;;;5046980;28;20382;-77
2022/01/16 06:04:45;;;;;;;;;;;;;;;;;;5053192;28;20254;-78
2022/01/16 06:07:10;;;;;;;;;;;;;;;;;;5054039;28;19929;-78
2022/01/16 06:09:35;;;;;;;;;;;;;;;;;;5053628;28;19917;-77
2022/01/16 06:12:00;;;;;;;;;;;;;;;;;;5054203;28;19913;-77
2022/01/16 06:14:26;;;;;;;;;;;;;;;;;;5053846;28;19952;-77
2022/01/16 06:16:51;;;;;;;;;;;;;;;;;;5053289;28;20387;-76
2022/01/16 06:19:19;;;;;;;;;;;;;;;;;;5052991;28;19916;-76
2022/01/16 06:21:45;;;;;;;;;;;;;;;;;;5053931;28;19985;-78
2022/01/16 06:24:12;;;;;;;;;;;;;;;;;;5053487;28;19916;-76
2022/01/16 06:26:40;;;;;;;;;;;;;;;;;;5054202;28;19920;-79
2022/01/16 06:29:05;;;;;;;;;;;;;;;;;;5053920;28;19956;-78
2022/01/16 06:31:31;;;;;;;;;;;;;;;;;;5052998;28;19983;-76
2022/01/16 06:34:06;;;;;;;;;;;;;;;;;;5053703;28;19923;-77
2022/01/16 06:36:31;;;;;;;;;;;;;;;;;;5054105;28;19944;-77
2022/01/16 06:38:56;;;;;;;;;;;;;;;;;;5051917;28;19963;-77
2022/01/16 06:41:22;;;;;;;;;;;;;;;;;;5053523;28;19978;-77
2022/01/16 06:43:49;;;;;;;;;;;;;;;;;;5050637;28;19913;-78
2022/01/16 06:46:14;;;;;;;;;;;;;;;;;;5036148;28;19964;-78
2022/01/16 06:48:40;;;;;;;;;;;;;;;;;;5053565;28;19963;-78
2022/01/16 06:51:06;;;;;;;;;;;;;;;;;;5053899;28;19940;-78
2022/01/16 06:53:31;;;;;;;;;;;;;;;;;;5053687;28;19920;-78
2022/01/16 06:55:56;;;;;;;;;;;;;;;;;;5053557;28;19928;-77
2022/01/16 06:58:21;;;;;;;;;;;;;;;;;;5053536;28;19935;-76
2022/01/16 07:00:47;;;;;;;;;;;;;;;;;;5053515;28;20373;-76
2022/01/16 07:03:13;;;;;;;;;;;;;;;;;;5053608;28;20215;-77
2022/01/16 07:05:41;;;;;;;;;;;;;;;;;;5046245;28;19944;-77
2022/01/16 07:08:09;;;;;;;;;;;;;;;;;;5047368;28;19921;-78
2022/01/16 07:10:34;;;;;;;;;;;;;;;;;;5053980;28;19912;-79
2022/01/16 07:12:59;;;;;;;;;;;;;;;;;;5053119;28;19927;-76
2022/01/16 07:15:25;;;;;;;;;;;;;;;;;;5054882;28;19917;-78
2022/01/16 07:17:50;;;;;;;;;;;;;;;;;;5053544;28;20000;-76
2022/01/16 07:20:15;;;;;;;;;;;;;;;;;;5057126;28;19944;-77
2022/01/16 07:22:41;;;;;;;;;;;;;;;;;;5056769;28;19917;-77
2022/01/16 07:25:06;;;;;;;;;;;;;;;;;;5056058;28;19939;-78
2022/01/16 07:27:32;;;;;;;;;;;;;;;;;;5057015;28;20534;-79
2022/01/16 07:29:58;;;;;;;;;;;;;;;;;;5059687;28;19939;-79
2022/01/16 07:32:23;;;;;;;;;;;;;;;;;;5055856;28;19924;-76
2022/01/16 07:34:49;;;;;;;;;;;;;;;;;;5057166;28;19912;-78
2022/01/16 07:37:14;;;;;;;;;;;;;;;;;;5055951;28;19921;-78
2022/01/16 07:39:39;;;;;;;;;;;;;;;;;;5057001;28;19913;-77
2022/01/16 07:42:04;;;;;;;;;;;;;;;;;;5056789;28;19917;-78
2022/01/16 07:44:30;;;;;;;;;;;;;;;;;;5056650;28;19927;-78
2022/01/16 07:46:57;;;;;;;;;;;;;;;;;;5056334;28;19920;-77
2022/01/16 07:49:25;;;;;;;;;;;;;;;;;;5056569;28;19948;-79
2022/01/16 07:51:53;;;;;;;;;;;;;;;;;;5055330;28;19927;-79
2022/01/16 07:54:19;;;;;;;;;;;;;;;;;;5056772;28;20338;-76
2022/01/16 07:56:44;;;;;;;;;;;;;;;;;;5056678;28;20007;-79
2022/01/16 07:59:09;;;;;;;;;;;;;;;;;;5056331;28;20289;-78
2022/01/16 08:01:34;;;;;;;;;;;;;;;;;;5052256;28;19928;-78
2022/01/16 08:04:00;;;;;;;;;;;;;;;;;;5037497;28;19917;-78
2022/01/16 08:06:25;;;;;;;;;;;;;;;;;;5055323;28;19962;-78
2022/01/16 08:08:53;;;;;;;;;;;;;;;;;;5054367;28;20237;-76
2022/01/16 08:11:18;;;;;;;;;;;;;;;;;;5055559;28;19943;-76
2022/01/16 08:13:45;;;;;;;;;;;;;;;;;;5056125;28;19920;-78
2022/01/16 08:16:11;;;;;;;;;;;;;;;;;;5056440;28;19963;-77
2022/01/16 08:18:36;;;;;;;;;;;;;;;;;;5056305;28;19925;-78
2022/01/16 08:21:02;;;;;;;;;;;;;;;;;;5056335;28;19919;-78
2022/01/16 08:23:27;;;;;;;;;;;;;;;;;;5054870;28;20361;-76
2022/01/16 08:25:54;;;;;;;;;;;;;;;;;;5055822;28;19944;-76
2022/01/16 08:28:20;;;;;;;;;;;;;;;;;;5054551;28;19921;-78
2022/01/16 08:30:49;;;;;;;;;;;;;;;;;;5055860;28;19916;-78
2022/01/16 08:33:15;;;;;;;;;;;;;;;;;;5018464;28;19927;-75
2022/01/16 08:35:40;;;;;;;;;;;;;;;;;;5014185;28;19917;-78
2022/01/16 08:38:05;;;;;;;;;;;;;;;;;;5029796;28;20039;-75
2022/01/16 08:40:30;;;;;;;;;;;;;;;;;;5034270;28;20262;-78
2022/01/16 08:42:56;;;;;;;;;;;;;;;;;;5036041;28;20386;-78
2022/01/16 08:45:21;;;;;;;;;;;;;;;;;;5021160;28;19991;-78
2022/01/16 08:47:48;;;;;;;;;;;;;;;;;;5035725;28;20297;-76
2022/01/16 08:50:14;;;;;;;;;;;;;;;;;;5034920;28;19943;-79
2022/01/16 08:52:40;;;;;;;;;;;;;;;;;;5035491;28;19917;-79
2022/01/16 08:55:06;;;;;;;;;;;;;;;;;;5035144;28;19917;-78
2022/01/16 08:57:32;;;;;;;;;;;;;;;;;;5036004;28;19994;-78
2022/01/16 08:59:57;;;;;;;;;;;;;;;;;;5017795;28;20342;-79
2022/01/16 09:02:22;;;;;;;;;;;;;;;;;;5035572;28;20373;-77
2022/01/16 09:04:47;;;;;;;;;;;;;;;;;;5035097;28;20321;-79
2022/01/16 09:07:15;;;;;;;;;;;;;;;;;;5035540;28;19917;-81
2022/01/16 09:09:40;;;;;;;;;;;;;;;;;;5038198;28;19928;-78
2022/01/16 09:12:06;;;;;;;;;;;;;;;;;;5036775;28;19914;-78
2022/01/16 09:14:31;;;;;;;;;;;;;;;;;;5037871;28;20330;-77
2022/01/16 09:16:56;;;;;;;;;;;;;;;;;;5035635;28;19913;-79
2022/01/16 09:19:21;;;;;;;;;;;;;;;;;;5033969;28;19928;-79
2022/01/16 09:21:47;;;;;;;;;;;;;;;;;;5034989;28;19917;-79
2022/01/16 09:24:12;;;;;;;;;;;;;;;;;;5031098;28;19917;-79
2022/01/16 09:26:37;;;;;;;;;;;;;;;;;;5033936;28;19923;-79
2022/01/16 09:29:03;;;;;;;;;;;;;;;;;;5033571;28;19917;-78
2022/01/16 09:31:28;;;;;;;;;;;;;;;;;;5029799;28;20361;-79
2022/01/16 09:33:54;;;;;;;;;;;;;;;;;;5054753;28;20273;-79
2022/01/16 09:36:19;;;;;;;;;;;;;;;;;;5050471;28;19917;-79
2022/01/16 09:38:45;;;;;;;;;;;;;;;;;;5064765;28;19956;-79
2022/01/16 09:41:10;;;;;;;;;;;;;;;;;;5038763;28;20362;-77
2022/01/16 09:43:35;;;;;;;;;;;;;;;;;;5042802;28;20363;-79
2022/01/16 09:46:01;;;;;;;;;;;;;;;;;;5054519;28;19960;-78
2022/01/16 09:48:26;;;;;;;;;;;;;;;;;;5054393;28;19920;-79
2022/01/16 09:50:52;;;;;;;;;;;;;;;;;;5053988;28;19917;-76
2022/01/16 09:53:19;;;;;;;;;;;;;;;;;;5054469;28;19927;-79
2022/01/16 09:55:44;;;;;;;;;;;;;;;;;;5053368;28;19920;-80
2022/01/16 09:58:10;;;;;;;;;;;;;;;;;;5055504;28;19927;-79
2022/01/16 10:00:35;;;;;;;;;;;;;;;;;;5037535;28;20404;-79
2022/01/16 10:03:03;;;;;;;;;;;;;;;;;;5047855;28;19927;-77
2022/01/16 10:05:31;;;;;;;;;;;;;;;;;;5064835;28;19963;-80
2022/01/16 10:07:57;;;;;;;;;;;;;;;;;;5066137;28;19916;-77
2022/01/16 10:10:28;;;;;;;;;;;;;;;;;;5065283;28;19924;-81
2022/01/16 10:12:57;;;;;;;;;;;;;;;;;;5065127;28;19978;-78
2022/01/16 10:15:26;;;;;;;;;;;;;;;;;;5070220;28;20247;-79
2022/01/16 10:17:52;;;;;;;;;;;;;;;;;;5055540;28;19917;-80
2022/01/16 10:20:18;;;;;;;;;;;;;;;;;;5058095;28;19916;-79
2022/01/16 10:22:53;;;;;;;;;;;;;;;;;;5058917;28;19946;-81
2022/01/16 10:25:37;;;;;;;;;;;;;;;;;;5072015;28;19912;-80
2022/01/16 10:28:03;;;;;;;;;;;;;;;;;;5052554;28;19916;-78
2022/01/16 10:30:37;;;;;;;;;;;;;;;;;;5049704;28;19974;-77
2022/01/16 10:33:03;;;;;;;;;;;;;;;;;;5051030;28;19928;-78
2022/01/16 10:35:28;;;;;;;;;;;;;;;;;;5050362;28;20272;-78
2022/01/16 10:37:54;;;;;;;;;;;;;;;;;;5054090;28;20334;-76
2022/01/16 10:40:19;;;;;;;;;;;;;;;;;;5052389;28;20361;-76
2022/01/16 10:42:48;;;;;;;;;;;;;;;;;;5057033;28;19928;-76
2022/01/16 10:45:14;;;;;;;;;;;;;;;;;;5053914;28;20359;-76
2022/01/16 10:47:43;;;;;;;;;;;;;;;;;;5035648;28;19921;-76
2022/01/16 10:50:11;;;;;;;;;;;;;;;;;;5050351;28;19917;-79
2022/01/16 10:52:56;;;;;;;;;;;;;;;;;;5052510;28;19916;-79
2022/01/16 10:55:24;;;;;;;;;;;;;;;;;;5051708;28;19971;-77
2022/01/16 10:57:50;;;;;;;;;;;;;;;;;;5052389;28;19925;-78
2022/01/16 11:00:17;;;;;;;;;;;;;;;;;;5052441;28;20334;-78
2022/01/16 11:02:43;;;;;;;;;;;;;;;;;;5052308;28;19959;-77
2022/01/16 11:05:13;;;;;;;;;;;;;;;;;;5053256;28;19960;-78
2022/01/16 11:07:38;;;;;;;;;;;;;;;;;;5049564;28;20619;-79
2022/01/16 11:10:21;;;;;;;;;;;;;;;;;;5047180;28;19917;-79
2022/01/16 11:12:46;;;;;;;;;;;;;;;;;;5048450;28;19924;-80
2022/01/16 11:15:11;;;;;;;;;;;;;;;;;;5046203;28;19923;-81
2022/01/16 11:17:38;;;;;;;;;;;;;;;;;;5050001;28;20004;-79
2022/01/16 11:20:04;;;;;;;;;;;;;;;;;;5045695;28;20483;-75
2022/01/16 11:22:34;;;;;;;;;;;;;;;;;;5051241;28;19965;-77
2022/01/16 11:25:11;;;;;;;;;;;;;;;;;;5050297;28;19916;-79
2022/01/16 11:27:36;;;;;;;;;;;;;;;;;;5051720;28;20381;-80
2022/01/16 11:30:12;;;;;;;;;;;;;;;;;;5049069;28;20004;-80
2022/01/16 11:32:37;;;;;;;;;;;;;;;;;;5054134;28;19925;-77
2022/01/16 11:35:03;;;;;;;;;;;;;;;;;;5045062;28;19984;-79
2022/01/16 11:37:36;;;;;;;;;;;;;;;;;;5053517;28;19966;-78
2022/01/16 11:40:20;;;;;;;;;;;;;;;;;;5048189;28;19943;-79
2022/01/16 11:43:01;;;;;;;;;;;;;;;;;;5042754;28;20304;-79
2022/01/16 11:45:32;;;;;;;;;;;;;;;;;;5044330;28;19944;-77
2022/01/16 11:47:58;;;;;;;;;;;;;;;;;;5034863;28;19944;-79
2022/01/16 11:50:35;;;;;;;;;;;;;;;;;;5056286;28;20338;-77
2022/01/16 11:53:00;;;;;;;;;;;;;;;;;;5053998;28;20007;-76
2022/01/16 11:55:33;;;;;;;;;;;;;;;;;;5039042;28;20004;-78
2022/01/16 11:57:58;;;;;;;;;;;;;;;;;;5053605;28;19917;-78
2022/01/16 12:00:24;;;;;;;;;;;;;;;;;;5047389;28;19917;-80
2022/01/16 12:02:50;;;;;;;;;;;;;;;;;;5042664;28;20261;-78
2022/01/16 12:05:26;;;;;;;;;;;;;;;;;;5040293;28;20303;-78
2022/01/16 12:07:52;;;;;;;;;;;;;;;;;;5051990;28;19920;-81
2022/01/16 12:10:36;;;;;;;;;;;;;;;;;;5055804;28;19927;-81
2022/01/16 12:13:01;;;;;;;;;;;;;;;;;;5054704;28;19924;-80
2022/01/16 12:15:28;;;;;;;;;;;;;;;;;;5047157;28;20473;-79
2022/01/16 12:17:53;;;;;;;;;;;;;;;;;;5055503;28;19917;-81
2022/01/16 12:20:20;;;;;;;;;;;;;;;;;;5055170;28;19913;-80
2022/01/16 12:23:00;;;;;;;;;;;;;;;;;;5055248;28;20243;-80
2022/01/16 12:25:30;;;;;;;;;;;;;;;;;;5060813;28;19995;-83
2022/01/16 12:28:04;;;;;;;;;;;;;;;;;;5051061;28;19920;-80
2022/01/16 12:30:50;;;;;;;;;;;;;;;;;;5053208;28;19932;-80
2022/01/16 12:33:16;;;;;;;;;;;;;;;;;;5012283;28;19917;-80
2022/01/16 12:35:46;;;;;;;;;;;;;;;;;;5029732;28;19983;-78
2022/01/16 12:38:11;;;;;;;;;;;;;;;;;;5033144;28;19921;-82
2022/01/16 12:40:40;;;;;;;;;;;;;;;;;;5034603;28;19998;-80
2022/01/16 12:43:09;;;;;;;;;;;;;;;;;;5034625;28;19917;-79
2022/01/16 12:45:38;;;;;;;;;;;;;;;;;;5035580;28;20008;-79
2022/01/16 12:48:03;;;;;;;;;;;;;;;;;;5017091;28;19921;-80
2022/01/16 12:50:29;;;;;;;;;;;;;;;;;;5015448;28;19932;-79
2022/01/16 12:52:54;;;;;;;;;;;;;;;;;;5001017;28;20011;-80
2022/01/16 12:55:24;;;;;;;;;;;;;;;;;;5015939;28;20251;-80
2022/01/16 12:57:50;;;;;;;;;;;;;;;;;;5034830;28;19944;-81
2022/01/16 13:00:18;;;;;;;;;;;;;;;;;;5034937;28;19925;-80
2022/01/16 13:02:43;;;;;;;;;;;;;;;;;;5031007;28;20379;-78
2022/01/16 13:05:08;;;;;;;;;;;;;;;;;;5024879;28;19924;-80
2022/01/16 13:07:34;;;;;;;;;;;;;;;;;;4997352;28;19921;-80
2022/01/16 13:09:59;;;;;;;;;;;;;;;;;;5009258;28;20474;-79
2022/01/16 13:12:25;;;;;;;;;;;;;;;;;;5005394;28;20028;-82
2022/01/16 13:14:53;;;;;;;;;;;;;;;;;;5020408;28;19917;-81
2022/01/16 13:17:18;;;;;;;;;;;;;;;;;;5024128;28;19917;-81
2022/01/16 13:19:52;;;;;;;;;;;;;;;;;;5014367;28;20450;-81
2022/01/16 13:22:23;;;;;;;;;;;;;;;;;;5022068;28;19928;-79
2022/01/16 13:24:49;;;;;;;;;;;;;;;;;;5011604;28;19917;-78
2022/01/16 13:27:31;;;;;;;;;;;;;;;;;;5026659;28;20003;-78
2022/01/16 13:33:03;;;;;;;;;;;;;;;;;;5046588;28;19989;-79
2022/01/16 13:38:31;;;;;;;;;;;;;;;;;;5048112;28;20350;-79
2022/01/16 13:40:56;;;;;;;;;;;;;;;;;;5043784;28;19921;-80
2022/01/16 13:43:22;;;;;;;;;;;;;;;;;;5039409;28;20273;-80
2022/01/16 13:45:47;;;;;;;;;;;;;;;;;;5027943;28;19916;-81
2022/01/16 13:48:20;;;;;;;;;;;;;;;;;;5028238;28;19917;-83
2022/01/16 13:50:46;;;;;;;;;;;;;;;;;;5047388;28;19931;-82
2022/01/16 13:53:16;;;;;;;;;;;;;;;;;;5061656;28;19914;-80
2022/01/16 13:55:47;;;;;;;;;;;;;;;;;;5063942;28;19917;-80
2022/01/16 13:58:14;;;;;;;;;;;;;;;;;;5046845;28;19913;-80
2022/01/16 14:00:39;;;;;;;;;;;;;;;;;;5028276;28;19927;-83
2022/01/16 14:03:14;;;;;;;;;;;;;;;;;;5048236;28;19976;-82
2022/01/16 14:05:40;;;;;;;;;;;;;;;;;;5049921;28;20019;-81
2022/01/16 14:08:18;;;;;;;;;;;;;;;;;;5033267;28;19917;-87
2022/01/16 14:10:43;;;;;;;;;;;;;;;;;;5049391;28;19917;-82
2022/01/16 14:13:10;;;;;;;;;;;;;;;;;;5053868;28;20603;-80
2022/01/16 14:15:36;;;;;;;;;;;;;;;;;;5042820;28;19987;-81
2022/01/16 14:18:28;;;;;;;;;;;;;;;;;;5037435;28;19917;-83
2022/01/16 14:21:58;;;;;;;;;;;;;;;;;;5039051;28;19917;-83
2022/01/16 14:23:41;;;;;;;;;;;;;;;;;;5052816;28;20392;-82
2022/01/16 14:26:07;;;;;;;;;;;;;;;;;;5013487;28;20011;-83
2022/01/16 14:28:37;;;;;;;;;;;;;;;;;;4997502;28;20008;-82
2022/01/16 14:31:05;;;;;;;;;;;;;;;;;;5018423;28;19987;-82
2022/01/16 14:33:33;;;;;;;;;;;;;;;;;;5013404;28;20247;-83
2022/01/16 14:36:19;;;;;;;;;;;;;;;;;;4996581;28;20398;-84
2022/01/16 14:38:44;;;;;;;;;;;;;;;;;;5031804;28;19917;-76
2022/01/16 14:41:12;;;;;;;;;;;;;;;;;;5030909;28;20262;-75
2022/01/16 14:43:57;;;;;;;;;;;;;;;;;;5014377;28;19913;-75
2022/01/16 14:46:22;;;;;;;;;;;;;;;;;;5017215;28;19913;-75
2022/01/16 14:48:48;;;;;;;;;;;;;;;;;;5030762;28;20425;-75
2022/01/16 14:51:14;;;;;;;;;;;;;;;;;;5030195;28;19921;-75
2022/01/16 14:53:39;;;;;;;;;;;;;;;;;;5014232;28;20335;-74
2022/01/16 14:56:04;;;;;;;;;;;;;;;;;;5032271;28;19975;-75
2022/01/16 14:58:29;;;;;;;;;;;;;;;;;;5051904;28;20535;-75
2022/01/16 15:01:00;;;;;;;;;;;;;;;;;;5053380;28;20349;-77
2022/01/16 15:03:26;;;;;;;;;;;;;;;;;;5053337;28;19959;-77
2022/01/16 15:05:56;;;;;;;;;;;;;;;;;;5052862;28;19940;-77
2022/01/16 15:08:23;;;;;;;;;;;;;;;;;;5050003;28;19921;-75
2022/01/16 15:10:49;;;;;;;;;;;;;;;;;;5050804;28;20285;-75
2022/01/16 15:13:14;;;;;;;;;;;;;;;;;;5046020;28;19917;-75
2022/01/16 15:15:42;;;;;;;;;;;;;;;;;;5042480;28;20011;-74
2022/01/16 15:18:11;;;;;;;;;;;;;;;;;;5046324;28;19924;-74
2022/01/16 15:20:37;;;;;;;;;;;;;;;;;;5046068;28;19931;-74
2022/01/16 15:23:02;;;;;;;;;;;;;;;;;;5053420;28;20277;-74
2022/01/16 15:25:29;;;;;;;;;;;;;;;;;;5053452;28;19921;-73
2022/01/16 15:27:54;;;;;;;;;;;;;;;;;;5053309;28;19932;-74
2022/01/16 15:30:20;;;;;;;;;;;;;;;;;;5050863;28;19917;-75
2022/01/16 15:32:46;;;;;;;;;;;;;;;;;;5060828;28;19975;-76
2022/01/16 15:35:11;;;;;;;;;;;;;;;;;;5056092;28;20326;-76
2022/01/16 15:37:37;;;;;;;;;;;;;;;;;;5077198;28;20337;-76
2022/01/16 15:40:02;;;;;;;;;;;;;;;;;;5060645;28;19913;-75
2022/01/16 15:42:28;;;;;;;;;;;;;;;;;;5053838;28;19923;-75
2022/01/16 15:44:53;;;;;;;;;;;;;;;;;;5056463;28;19913;-75
2022/01/16 15:47:18;;;;;;;;;;;;;;;;;;5056111;28;19991;-75
2022/01/16 15:49:44;;;;;;;;;;;;;;;;;;5057122;28;19927;-76
2022/01/16 15:52:09;;;;;;;;;;;;;;;;;;5057006;28;19912;-75
2022/01/16 15:54:34;;;;;;;;;;;;;;;;;;5055452;28;19970;-76
2022/01/16 15:57:03;;;;;;;;;;;;;;;;;;5056544;28;19916;-75
2022/01/16 15:59:28;;;;;;;;;;;;;;;;;;5055971;28;19957;-76
2022/01/16 16:01:56;;;;;;;;;;;;;;;;;;5055524;28;20312;-75
2022/01/16 16:04:21;;;;;;;;;;;;;;;;;;5051540;28;19917;-75
2022/01/16 16:06:46;;;;;;;;;;;;;;;;;;5049289;28;19970;-75
2022/01/16 16:09:12;;;;;;;;;;;;;;;;;;5046238;28;19991;-75
2022/01/16 16:11:39;;;;;;;;;;;;;;;;;;5056440;28;20376;-75
2022/01/16 16:14:09;;;;;;;;;;;;;;;;;;5056698;28;19919;-77
2022/01/16 16:16:34;;;;;;;;;;;;;;;;;;5056991;28;20322;-73
2022/01/16 16:19:00;;;;;;;;;;;;;;;;;;5051196;28;19917;-76
2022/01/16 16:21:25;;;;;;;;;;;;;;;;;;5035883;28;19916;-76
2022/01/16 16:23:51;;;;;;;;;;;;;;;;;;5052939;28;19978;-72
2022/01/16 16:26:16;;;;;;;;;;;;;;;;;;5058343;28;19927;-71
2022/01/16 16:28:45;;;;;;;;;;;;;;;;;;5049651;28;19921;-72
2022/01/16 16:31:11;;;;;;;;;;;;;;;;;;5058464;28;19975;-73
2022/01/16 16:33:37;;;;;;;;;;;;;;;;;;5049469;28;19917;-73
2022/01/16 16:36:04;;;;;;;;;;;;;;;;;;5043950;28;20008;-74
2022/01/16 16:38:30;;;;;;;;;;;;;;;;;;5061666;28;20854;-74
2022/01/16 16:40:55;;;;;;;;;;;;;;;;;;5051503;28;19924;-74
2022/01/16 16:43:23;;;;;;;;;;;;;;;;;;5050836;28;19916;-75
2022/01/16 16:46:09;;;;;;;;;;;;;;;;;;5050915;28;20007;-75
2022/01/16 16:48:34;;;;;;;;;;;;;;;;;;5038332;28;19920;-75
2022/01/16 16:51:00;;;;;;;;;;;;;;;;;;5054712;28;19913;-73
2022/01/16 16:53:29;;;;;;;;;;;;;;;;;;5054638;28;19974;-73
2022/01/16 16:56:01;;;;;;;;;;;;;;;;;;5054621;28;19927;-76
2022/01/16 16:58:27;;;;;;;;;;;;;;;;;;5046774;28;19917;-73
2022/01/16 17:00:52;;;;;;;;;;;;;;;;;;5045087;28;20342;-75
2022/01/16 17:03:17;;;;;;;;;;;;;;;;;;5048837;28;20008;-75
2022/01/16 17:05:42;;;;;;;;;;;;;;;;;;5047403;28;19917;-75
2022/01/16 17:08:07;;;;;;;;;;;;;;;;;;5048919;28;19920;-75
2022/01/16 17:10:33;;;;;;;;;;;;;;;;;;5048294;28;19920;-75
2022/01/16 17:12:58;;;;;;;;;;;;;;;;;;5051367;28;19925;-75
2022/01/16 17:15:26;;;;;;;;;;;;;;;;;;5044203;28;20024;-75
2022/01/16 17:17:53;;;;;;;;;;;;;;;;;;5058635;28;19917;-75
2022/01/16 17:20:19;;;;;;;;;;;;;;;;;;5046341;28;20431;-75
2022/01/16 17:22:46;;;;;;;;;;;;;;;;;;5046247;28;19920;-75
2022/01/16 17:25:15;;;;;;;;;;;;;;;;;;5050056;28;19917;-74
2022/01/16 17:27:40;;;;;;;;;;;;;;;;;;5050681;28;19929;-75
2022/01/16 17:30:06;;;;;;;;;;;;;;;;;;5047631;28;20344;-74
2022/01/16 17:32:34;;;;;;;;;;;;;;;;;;5047334;28;20003;-76
2022/01/16 17:34:59;;;;;;;;;;;;;;;;;;5045306;28;19995;-75
2022/01/16 17:37:24;;;;;;;;;;;;;;;;;;5047615;28;19935;-75
2022/01/16 17:39:50;;;;;;;;;;;;;;;;;;5042268;28;20295;-75